Elm Lake, South Dakota
Current Conditions -  °F | °C
As of 3:53 PM on Saturday 25 Oct 2014 (Local Time) from KABR Reporting Station
Clear Clear  
Wind Chill: 65°   Ceiling: Unl
Heat Index: 65°   Visibility: 10mi
Dew Point: 29°   Wind: 3mph
Humidity: 26%   Direction: 30°NNE
Pressure: 30.1"   Gusts: NA
Location:  45.8594°N, 98.5623°W
Report Text: KABR 252053Z AUTO 03003KT 10SM CLR 18/M02 A3010 RMK AO2 SLP192 T01831017 56019
Loading
Personal Weather Stations






























Interactive Weather Map
Tropical Storm Tracking
New forecast layout! Learn more

10-Day Weather Forecast

Advertisements
Track Severe Weather on mobile